• Join FlightAware (Why Join?)
  • Login
  • US Flag 
12:55AM EDT


 

Airport Tracker/Info


-or-


 

Live Flight TrackerFlight Track Log ✈ RPA3247 ✈ 05-May-2013 ✈ KDCA - KMSY

Flight Track Log - Related Links

Times and Time Zones

All times are in EDT time to prevent confusion due to time zone crossing. See the RPA3247 flight status page for this flight to view local times or setup timezone preferences in your user account.

Time Position Orientation Groundspeed Altitude Reporting Facility
EDT Latitude Longitude Course Direction KTS MPH feet Rate Location/Type
08:25PM 38.8833 -77.0500 236° Southwest 169 194 1,300  Level Potomac TRACON
08:26PM 38.9167 -77.1000 311° West 224 258 3,400 2,280 Climbing Potomac TRACON
08:27PM 38.9667 -77.1500 322° Northwest 280 322 5,700 2,820 Climbing Potomac TRACON
08:28PM 38.6266 -77.4494 234° Southwest  Level FlightAware Approximate
08:28PM 39.0000 -77.2500 293° West 291 335 8,800  Level Potomac TRACON
08:29PM 38.5841 -77.5642 247° West  Level FlightAware Approximate
08:29PM 38.9333 -77.3167 218° Southwest 301 346 10,800  Level Potomac TRACON
08:30PM 38.5283 -77.6695 233° Southwest  Level FlightAware Approximate
08:31PM 38.4661 -77.7677 236° Southwest  Level FlightAware Approximate
08:31PM 38.7756 -77.4797 219° Southwest 351 404 15,600  Level Washington Center
08:32PM 38.6811 -77.5169 197° South 348 400 17,700 1,680 Climbing Washington Center
08:33PM 38.5939 -77.4989 171° South 338 389 19,000 1,440 Climbing Washington Center
08:34PM 38.4933 -77.5308 194° South 351 404 20,700 1,620 Climbing Washington Center
08:35PM 38.4431 -77.6619 244° Southwest 351 404 22,300 1,500 Climbing Washington Center
08:36PM 38.3908 -77.7931 243° Southwest 382 440 23,800 1,560 Climbing Washington Center
08:37PM 38.3319 -77.9264 241° Southwest 412 474 25,400 1,380 Climbing Washington Center
08:38PM 38.2750 -78.0594 241° Southwest 425 489 26,600 1,200 Climbing Washington Center
08:39PM 38.2181 -78.1950 242° Southwest 430 495 27,900 1,320 Climbing Washington Center
08:40PM 38.1606 -78.3356 243° Southwest 435 501 29,300 1,380 Climbing Washington Center
08:41PM 38.0892 -78.4492 231° Southwest 435 501 30,700 1,080 Climbing Washington Center
08:42PM 38.0114 -78.5647 230° Southwest 435 501 31,500 960 Climbing Washington Center
08:43PM 37.9394 -78.6856 233° Southwest 435 501 32,700 720 Climbing Washington Center
08:44PM 37.8858 -78.8228 244° Southwest 435 501 33,000 240 Climbing Washington Center
08:45PM 37.8322 -78.9519 242° Southwest 423 487 33,300 480 Climbing Washington Center
08:46PM 37.7739 -79.0939 243° Southwest 423 487 34,000 300 Climbing Washington Center
08:47PM 37.7200 -79.2253 243° Southwest 423 487 34,000  Level Washington Center
08:48PM 37.6683 -79.3436 241° Southwest 423 487 34,000  Level Washington Center
08:49PM 37.6094 -79.4847 242° Southwest 423 487 34,000  Level Washington Center
08:50PM 37.5597 -79.6056 243° Southwest 423 487 34,000  Level Washington Center
08:51PM 37.4983 -79.7489 242° Southwest 423 487 34,000  Level Washington Center
08:52PM 37.4436 -79.8844 243° Southwest 425 489 34,000  Level Washington Center
08:53PM 37.3867 -80.0144 241° Southwest 430 495 34,000  Level Washington Center
08:54PM 37.3231 -80.1608 241° Southwest 417 480 34,000  Level Atlanta Center
08:55PM 37.2689 -80.2886 242° Southwest 417 480 34,000  Level Atlanta Center
08:56PM 37.2181 -80.4058 241° Southwest 424 488 34,000  Level Atlanta Center
08:57PM 37.1636 -80.5358 242° Southwest 424 488 34,000  Level Atlanta Center
08:58PM 37.1044 -80.6608 239° Southwest 424 488 34,000  Level Atlanta Center
08:59PM 37.0561 -80.7956 246° West 424 488 34,000  Level Atlanta Center
09:00PM 37.0014 -80.9433 245° Southwest 430 495 34,000  Level Atlanta Center
09:01PM 36.9528 -81.0803 246° West 425 489 34,000  Level Atlanta Center
09:02PM 36.9058 -81.2169 247° West 425 489 34,000  Level Atlanta Center
09:03PM 36.8547 -81.3539 245° Southwest 430 495 34,000  Level Atlanta Center
09:04PM 36.8114 -81.4772 246° West 430 495 34,000  Level Atlanta Center
09:05PM 36.7622 -81.6239 247° West 424 488 34,000  Level Atlanta Center
09:06PM 36.7128 -81.7575 245° Southwest 424 488 34,000  Level Atlanta Center
09:07PM 36.6631 -81.8933 246° West 424 488 34,000  Level Atlanta Center
09:08PM 36.6194 -82.0186 247° West 414 476 34,000  Level Atlanta Center
09:09PM 36.5653 -82.1569 244° Southwest 426 490 34,000  Level Atlanta Center
09:10PM 36.5150 -82.2925 245° Southwest 426 490 34,000  Level Atlanta Center
09:11PM 36.4689 -82.4150 245° Southwest 426 490 34,000  Level Atlanta Center
09:12PM 36.4183 -82.5450 244° Southwest 426 490 34,000  Level Atlanta Center
09:13PM 36.3697 -82.6800 246° West 426 490 34,000  Level Atlanta Center
09:14PM 36.3211 -82.8094 245° Southwest 426 490 34,000  Level Atlanta Center
09:15PM 36.2703 -82.9442 245° Southwest 426 490 34,000  Level Atlanta Center
09:16PM 36.2172 -83.0789 244° Southwest 426 490 34,000  Level Atlanta Center
09:17PM 36.1681 -83.2106 245° Southwest 426 490 34,000  Level Atlanta Center
09:18PM 36.1125 -83.3422 242° Southwest 426 490 34,000  Level Atlanta Center
09:19PM 36.0403 -83.4533 231° Southwest 431 496 34,000  Level Atlanta Center
09:20PM 35.9697 -83.5667 232° Southwest 421 484 34,000  Level Atlanta Center
09:21PM 35.8972 -83.6772 231° Southwest 421 484 34,000  Level Atlanta Center
09:22PM 35.8222 -83.7878 230° Southwest 426 490 34,000  Level Atlanta Center
09:23PM 35.7536 -83.8928 231° Southwest 421 484 34,000  Level Atlanta Center
09:24PM 35.6828 -83.9953 230° Southwest 410 472 34,000  Level Atlanta Center
09:25PM 35.6139 -84.1000 231° Southwest 404 465 34,000  Level Atlanta Center
09:26PM 35.5450 -84.2072 232° Southwest 398 458 34,000  Level Atlanta Center
09:27PM 35.4739 -84.3117 230° Southwest 398 458 34,000  Level Atlanta Center
09:28PM 35.4047 -84.4183 232° Southwest 398 458 34,000  Level Atlanta Center
09:29PM 35.3314 -84.5250 230° Southwest 404 465 34,000  Level Atlanta Center
09:30PM 35.2517 -84.6442 231° Southwest 404 465 34,000  Level Atlanta Center
09:31PM 35.1736 -84.7553 229° Southwest 414 476 34,000  Level Atlanta Center
09:32PM 35.0981 -84.8664 230° Southwest 425 489 34,000  Level Atlanta Center
09:33PM 35.0219 -84.9772 230° Southwest 431 496 34,000  Level Atlanta Center
09:34PM 34.9481 -85.0878 231° Southwest 431 496 34,000  Level Atlanta Center
09:35PM 34.8700 -85.2008 230° Southwest 431 496 34,000  Level Atlanta Center
09:36PM 34.7917 -85.3136 230° Southwest 431 496 34,000  Level Atlanta Center
09:37PM 34.7172 -85.4236 231° Southwest 431 496 34,000  Level Atlanta Center
09:38PM 34.6408 -85.5333 230° Southwest 431 496 34,000  Level Atlanta Center
09:39PM 34.5644 -85.6431 230° Southwest 431 496 34,000  Level Atlanta Center
09:40PM 34.4856 -85.7550 229° Southwest 431 496 34,000  Level Atlanta Center
09:41PM 34.4217 -85.8494 231° Southwest 422 486 34,000  Level Atlanta Center
09:42PM 34.3386 -85.9608 228° Southwest 428 493 34,000  Level Atlanta Center
09:43PM 34.2575 -86.0744 229° Southwest 434 499 34,000  Level Atlanta Center
09:44PM 34.1806 -86.1881 231° Southwest 440 506 34,000  Level Atlanta Center
09:45PM 34.0969 -86.3042 229° Southwest 451 519 34,000  Level Atlanta Center
09:46PM 34.0175 -86.4147 229° Southwest 451 519 34,000  Level Atlanta Center
09:47PM 33.9361 -86.5250 228° Southwest 451 519 34,000  Level Atlanta Center
09:48PM 33.8586 -86.6403 231° Southwest 451 519 34,000  Level Atlanta Center
09:49PM 33.7747 -86.7553 229° Southwest 451 519 34,000  Level Atlanta Center
09:50PM 33.6928 -86.8675 229° Southwest 451 519 34,000  Level Atlanta Center
09:51PM 33.6150 -86.9797 230° Southwest 451 519 34,000  Level Atlanta Center
09:52PM 33.5394 -87.0944 232° Southwest 451 519 34,000  Level Atlanta Center
09:53PM 33.4611 -87.2111 231° Southwest 451 519 34,000  Level Atlanta Center
09:54PM 33.3894 -87.3206 232° Southwest 441 507 34,000  Level Atlanta Center
09:55PM 33.3156 -87.4294 231° Southwest 435 501 34,000  Level Atlanta Center
09:56PM 33.2436 -87.5358 231° Southwest 427 491 34,000  Level Atlanta Center
09:58PM 33.1419 -87.6853 231° Southwest 422 486 34,000  Level Memphis Center
09:59PM 33.0692 -87.7964 232° Southwest 428 493 34,000  Level Memphis Center
10:00PM 32.9983 -87.9025 232° Southwest 428 493 34,000  Level Memphis Center
10:01PM 32.9192 -88.0211 232° Southwest 423 487 34,000  Level Memphis Center
10:02PM 32.8503 -88.1267 232° Southwest 423 487 34,000  Level Memphis Center
10:03PM 32.7769 -88.2325 231° Southwest 423 487 34,000  Level Memphis Center
10:04PM 32.7014 -88.3403 230° Southwest 423 487 34,000  Level Memphis Center
10:05PM 32.6281 -88.4456 230° Southwest 423 487 34,000  Level Memphis Center
10:06PM 32.5544 -88.5531 231° Southwest 423 487 34,000  Level Memphis Center
10:07PM 32.4828 -88.6606 232° Southwest 428 493 34,000  Level Memphis Center
10:08PM 32.4092 -88.7628 230° Southwest 423 487 34,000  Level Memphis Center
10:09PM 32.3267 -88.8578 224° Southwest 417 480 34,000  Level Memphis Center
10:10PM 32.2358 -88.9450 219° Southwest 418 481 34,000  Level Memphis Center
10:11PM 32.1472 -89.0325 220° Southwest 423 487 34,000  Level Memphis Center
10:12PM 32.0581 -89.1169 219° Southwest 423 487 34,000 -240 Level Memphis Center
10:13PM 31.9672 -89.2039 219° Southwest 423 487 33,600 -960 Descending Memphis Center
10:14PM 31.8781 -89.2908 220° Southwest 423 487 32,100 -1,680 Descending Memphis Center
10:16PM 31.7361 -89.4247 219° Southwest 415 478 29,100 -1,560 Descending Houston Center
10:17PM 31.6464 -89.5097 219° Southwest 415 478 28,000 -600 Descending Houston Center
10:18PM 31.5447 -89.6067 219° Southwest 416 479 28,000 -120 Level Houston Center
10:19PM 31.4533 -89.6928 219° Southwest 420 483 27,800 -1,020 Descending Houston Center
10:20PM 31.3642 -89.7792 220° Southwest 416 479 26,000 -1,800 Descending Houston Center
10:21PM 31.2758 -89.8617 219° Southwest 409 471 24,200 -1,800 Descending Houston Center
10:22PM 31.1892 -89.9444 219° Southwest 403 464 22,400 -1,740 Descending Houston Center
10:23PM 31.1033 -90.0247 219° Southwest 398 458 20,700 -1,800 Descending Houston Center
10:24PM 31.0194 -90.1031 219° Southwest 388 447 18,800 -1,920 Descending Houston Center
10:25PM 30.9167 -90.1372 196° South 390 449 16,900 -2,040 Descending Houston Center
10:25PM 30.8711 -90.1450 188° South 386 444 16,200 -1,680 Descending Houston Center
10:26PM 30.8117 -90.1547 188° South 382 440 15,200 -1,500 Descending Houston Center
10:27PM 30.7081 -90.1581 182° South 378 435 13,600 -1,620 Descending Houston Center
10:28PM 30.6000 -90.1564 179° South 328 377 12,000 -1,680 Descending Houston Center
10:29PM 30.5100 -90.1553 179° South 316 364 10,300 -1,800 Descending Houston Center
10:30PM 30.4306 -90.1536 179° South 311 358 8,600 -1,740 Descending Houston Center
10:31PM 30.3469 -90.1547 181° South 299 344 7,000 -1,680 Descending Houston Center
10:32PM 30.2656 -90.1581 182° South 289 333 5,300 -1,500 Descending Houston Center
10:33PM 30.1886 -90.1636 184° South 282 325 4,000 -660 Descending Houston Center
10:34PM 30.1092 -90.1669 182° South 281 323 4,000 -360 Level Houston Center
10:35PM 30.0406 -90.1719 184° South 259 298 3,400 -720 Descending Houston Center
10:35PM 30.0303 -90.1722 181° South 276 318 3,200 -420 Descending Houston Center
10:36PM 29.9758 -90.1747 182° South 218 251 3,000 -300 Descending Houston Center
10:36PM 29.9556 -90.1769 185° South 245 282 2,900 -600 Descending Houston Center
10:37PM 29.9175 -90.1842 189° South 202 232 2,400 -900 Descending Houston Center
10:37PM 29.9008 -90.1875 190° South 220 253 2,000 -480 Descending Houston Center
10:37PM 29.8722 -90.2028 205° Southwest 192 221 2,000  Level Houston Center
10:38PM 29.8681 -90.2239 257° West 200 230 2,000  Level Houston Center
10:39PM 29.8697 -90.2606 273° West 164 189 2,000  Level Houston Center
10:39PM 29.8778 -90.2750 303° West 179 206 2,000 -300 Level Houston Center
10:40PM 29.9036 -90.2783 354° North 147 169 1,700 -600 Descending Houston Center
10:40PM 29.9164 -90.2744 15° North 157 181 1,400 -840 Descending Houston Center
10:41PM 29.9408 -90.2672 14° North 122 140 900 -720 Descending Houston Center
10:41PM 29.9517 -90.2642 14° North 140 161 700 -720 Descending Houston Center
10:42PM 29.9742 -90.2564 17° North 126 145 200 -240 Descending Houston Center
10:42PM 29.9822 -90.2550 North 135 155 500 840 Climbing Houston Center